createdAt,value
2018-09-02T00:01:15.859Z,67.10
2018-09-02T00:03:44.582Z,67.60
2018-09-02T00:06:13.260Z,66.90
2018-09-02T00:08:42.007Z,67.00
2018-09-02T00:11:10.730Z,67.20
2018-09-02T00:13:39.400Z,67.30
2018-09-02T00:16:08.158Z,67.10
2018-09-02T00:18:36.875Z,67.20
2018-09-02T00:21:05.594Z,67.70
2018-09-02T00:23:34.267Z,68.10
2018-09-02T00:26:02.952Z,68.70
2018-09-02T00:28:31.638Z,69.40
2018-09-02T00:31:00.357Z,69.80
2018-09-02T00:33:29.102Z,70.10
2018-09-02T00:35:57.850Z,69.30
2018-09-02T00:38:26.988Z,69.60
2018-09-02T00:40:55.785Z,69.60
2018-09-02T00:43:24.486Z,69.80
2018-09-02T00:45:53.222Z,71.00
2018-09-02T00:48:21.984Z,70.80
2018-09-02T00:50:50.689Z,70.40
2018-09-02T00:53:19.415Z,70.60
2018-09-02T00:55:48.114Z,71.00
2018-09-02T00:58:16.808Z,71.30
2018-09-02T01:00:45.493Z,71.90
2018-09-02T01:03:14.238Z,71.90
2018-09-02T01:05:42.901Z,72.00
2018-09-02T01:08:11.565Z,72.50
2018-09-02T01:10:40.284Z,72.50
2018-09-02T01:13:13.251Z,72.40
2018-09-02T01:15:46.273Z,72.40
2018-09-02T01:18:20.186Z,71.80
2018-09-02T01:20:55.429Z,72.40
2018-09-02T01:23:31.745Z,72.00
2018-09-02T01:26:05.667Z,71.70
2018-09-02T01:28:41.684Z,71.20
2018-09-02T01:31:19.420Z,71.00
2018-09-02T01:33:48.295Z,70.80
2018-09-02T01:36:16.980Z,70.60
2018-09-02T01:38:45.668Z,71.00
2018-09-02T01:41:14.380Z,71.10
2018-09-02T01:43:43.049Z,71.40
2018-09-02T01:46:11.817Z,70.90
2018-09-02T01:48:40.578Z,70.80
2018-09-02T01:51:09.270Z,71.00
2018-09-02T01:53:37.997Z,70.50
2018-09-02T01:56:06.761Z,70.00
2018-09-02T01:58:35.507Z,70.20
2018-09-02T02:01:04.217Z,69.70
2018-09-02T02:03:32.924Z,68.40
2018-09-02T02:06:01.612Z,68.10
2018-09-02T02:08:30.368Z,67.70
2018-09-02T02:10:59.085Z,67.80
2018-09-02T02:13:27.867Z,68.00
2018-09-02T02:15:56.570Z,67.80
2018-09-02T02:18:25.280Z,67.70
2018-09-02T02:20:53.980Z,67.30
2018-09-02T02:23:22.749Z,67.40
2018-09-02T02:25:51.393Z,67.40
2018-09-02T02:28:20.099Z,67.30
2018-09-02T02:30:48.805Z,66.70
2018-09-02T02:33:17.486Z,66.30
2018-09-02T02:35:46.256Z,66.30
2018-09-02T02:38:14.973Z,66.70
2018-09-02T02:40:43.677Z,67.10
2018-09-02T02:43:12.382Z,66.90
2018-09-02T02:45:41.105Z,67.00
2018-09-02T02:48:09.847Z,67.30
2018-09-02T02:50:38.533Z,67.40
2018-09-02T02:53:07.273Z,67.30
2018-09-02T02:55:36.311Z,67.40
2018-09-02T02:58:05.057Z,67.50
2018-09-02T03:00:33.813Z,67.80
2018-09-02T03:03:02.518Z,67.40
2018-09-02T03:05:31.270Z,67.30
2018-09-02T03:07:59.978Z,67.30
2018-09-02T03:10:28.681Z,67.60
2018-09-02T03:12:57.410Z,67.50
2018-09-02T03:15:26.120Z,67.50
2018-09-02T03:17:54.785Z,67.60
2018-09-02T03:20:23.469Z,67.60
2018-09-02T03:22:52.197Z,68.00
2018-09-02T03:25:20.922Z,67.80
2018-09-02T03:27:49.639Z,67.90
2018-09-02T03:30:18.358Z,67.80
2018-09-02T03:32:47.088Z,67.80
2018-09-02T03:35:15.792Z,67.80
2018-09-02T03:37:44.534Z,68.00
2018-09-02T03:40:13.242Z,68.20
2018-09-02T03:42:42.002Z,68.40
2018-09-02T03:45:10.783Z,68.40
2018-09-02T03:47:39.465Z,68.90
2018-09-02T03:50:08.204Z,69.30
2018-09-02T03:52:36.948Z,68.70
2018-09-02T03:55:05.855Z,69.10
2018-09-02T03:57:34.538Z,69.10
2018-09-02T04:00:03.269Z,69.20
2018-09-02T04:02:31.885Z,69.20
2018-09-02T04:05:00.587Z,69.90
2018-09-02T04:07:29.322Z,69.60
2018-09-02T04:09:58.053Z,69.70
2018-09-02T04:12:26.797Z,70.30
2018-09-02T04:14:55.457Z,69.80
2018-09-02T04:17:24.175Z,69.90
2018-09-02T04:19:52.853Z,70.30
2018-09-02T04:22:21.545Z,70.20
2018-09-02T04:24:50.222Z,70.80
2018-09-02T04:27:18.990Z,70.70
2018-09-02T04:29:47.697Z,71.00
2018-09-02T04:32:16.406Z,71.20
2018-09-02T04:34:45.090Z,71.00
2018-09-02T04:37:13.777Z,70.80
2018-09-02T04:39:42.484Z,70.90
2018-09-02T04:42:11.197Z,71.30
2018-09-02T04:44:39.903Z,71.20
2018-09-02T04:47:08.793Z,71.40
2018-09-02T04:49:37.449Z,72.10
2018-09-02T04:52:07.066Z,71.60
2018-09-02T04:54:35.856Z,71.80
2018-09-02T04:57:04.561Z,71.70
2018-09-02T04:59:33.275Z,71.90
2018-09-02T05:02:01.965Z,72.10
2018-09-02T05:04:30.698Z,72.20
2018-09-02T05:06:59.378Z,72.30
2018-09-02T05:09:28.129Z,72.20
2018-09-02T05:11:56.853Z,72.70
2018-09-02T05:14:25.606Z,72.70
2018-09-02T05:16:54.339Z,73.30
2018-09-02T05:19:23.110Z,73.60
2018-09-02T05:21:51.858Z,73.60
2018-09-02T05:24:20.531Z,73.60
2018-09-02T05:26:49.283Z,73.90
2018-09-02T05:29:17.969Z,74.40
2018-09-02T05:31:46.677Z,75.10
2018-09-02T05:34:15.388Z,74.70
2018-09-02T05:36:44.138Z,76.10
2018-09-02T05:39:12.775Z,75.70
2018-09-02T05:41:41.461Z,76.80
2018-09-02T05:44:10.161Z,77.20
2018-09-02T05:46:38.854Z,77.60
2018-09-02T05:49:07.535Z,78.10
2018-09-02T05:51:36.257Z,78.00
2018-09-02T05:54:05.069Z,78.40
2018-09-02T05:56:33.794Z,79.00
2018-09-02T05:59:02.495Z,79.10
2018-09-02T06:01:31.194Z,79.60
2018-09-02T06:03:59.984Z,79.90
2018-09-02T06:06:28.690Z,81.30
2018-09-02T06:08:57.377Z,81.80
2018-09-02T06:11:26.045Z,83.20
2018-09-02T06:13:54.794Z,84.20
2018-09-02T06:16:23.433Z,83.40
2018-09-02T06:18:52.069Z,82.90
2018-09-02T06:21:20.781Z,83.60
2018-09-02T06:23:49.463Z,83.80
2018-09-02T06:26:18.237Z,83.40
2018-09-02T06:28:46.918Z,83.80
2018-09-02T06:31:15.699Z,84.10
2018-09-02T06:33:44.416Z,84.80
2018-09-02T06:36:13.107Z,84.80
2018-09-02T06:38:41.843Z,86.40
2018-09-02T06:41:10.521Z,86.70
2018-09-02T06:43:39.218Z,85.40
2018-09-02T06:46:07.880Z,85.80
2018-09-02T06:48:36.819Z,86.30
2018-09-02T06:51:05.665Z,86.20
2018-09-02T06:53:34.385Z,87.00
2018-09-02T06:56:03.087Z,86.90
2018-09-02T06:58:31.880Z,86.70
2018-09-02T07:01:00.560Z,87.70
2018-09-02T07:03:29.325Z,87.10
2018-09-02T07:05:58.011Z,87.80
2018-09-02T07:08:26.738Z,87.90
2018-09-02T07:10:55.559Z,88.00
2018-09-02T07:13:24.297Z,88.50
2018-09-02T07:15:53.059Z,88.40
2018-09-02T07:18:21.785Z,88.50
2018-09-02T07:20:50.579Z,89.50
2018-09-02T07:23:19.251Z,89.90
2018-09-02T07:25:48.080Z,89.50
2018-09-02T07:28:16.770Z,89.50
2018-09-02T07:30:45.518Z,90.20
2018-09-02T07:33:14.337Z,90.10
2018-09-02T07:35:43.129Z,90.30
2018-09-02T07:38:11.922Z,90.30
2018-09-02T07:40:40.627Z,90.70
2018-09-02T07:43:09.436Z,91.10
2018-09-02T07:45:38.161Z,91.80
2018-09-02T07:48:07.049Z,92.50
2018-09-02T07:50:35.813Z,92.80
2018-09-02T07:53:04.838Z,93.10
2018-09-02T07:55:33.603Z,93.60
2018-09-02T07:58:03.126Z,93.90
2018-09-02T08:00:31.815Z,94.10
2018-09-02T08:03:02.316Z,94.20
2018-09-02T08:05:31.069Z,94.60
2018-09-02T08:07:59.853Z,94.70
2018-09-02T08:10:28.576Z,94.90
2018-09-02T08:12:57.521Z,94.90
2018-09-02T08:15:26.082Z,94.80
2018-09-02T08:17:54.833Z,94.80
2018-09-02T08:20:23.588Z,95.30
2018-09-02T08:22:52.365Z,95.00
2018-09-02T08:25:21.102Z,95.50
2018-09-02T08:27:50.894Z,95.50
2018-09-02T08:30:19.645Z,95.70
2018-09-02T08:32:48.755Z,95.50
2018-09-02T08:35:17.529Z,95.80
2018-09-02T08:37:46.336Z,95.90
2018-09-02T08:40:15.108Z,96.00
2018-09-02T08:42:43.849Z,96.00
2018-09-02T08:45:12.631Z,95.90
2018-09-02T08:47:41.340Z,95.40
2018-09-02T08:50:10.171Z,95.20
2018-09-02T08:52:38.904Z,95.10
2018-09-02T08:55:07.714Z,95.90
2018-09-02T08:57:36.335Z,95.40
2018-09-02T09:00:05.279Z,95.60
2018-09-02T09:02:33.988Z,95.70
2018-09-02T09:05:02.662Z,96.70
2018-09-02T09:07:32.293Z,97.40
2018-09-02T09:10:00.934Z,97.80
2018-09-02T09:12:29.690Z,98.20
2018-09-02T09:14:58.368Z,98.30
2018-09-02T09:17:27.134Z,98.90
2018-09-02T09:19:55.871Z,98.30
2018-09-02T09:22:24.563Z,97.90
2018-09-02T09:24:53.371Z,98.20
2018-09-02T09:27:22.259Z,98.60
2018-09-02T09:29:51.071Z,99.50
2018-09-02T09:32:19.875Z,99.30
2018-09-02T09:34:48.566Z,99.70
2018-09-02T09:37:17.274Z,99.90
2018-09-02T09:39:46.006Z,99.90
2018-09-02T09:42:14.830Z,99.90
2018-09-02T09:44:43.617Z,99.90
2018-09-02T09:47:12.296Z,99.90
2018-09-02T09:49:41.085Z,99.90
2018-09-02T09:52:09.932Z,99.90
2018-09-02T09:54:38.733Z,99.90
2018-09-02T09:57:07.605Z,99.90
2018-09-02T09:59:36.303Z,99.90
2018-09-02T10:02:05.113Z,99.90
2018-09-02T10:04:33.909Z,99.90
2018-09-02T10:07:02.605Z,99.90
2018-09-02T10:09:31.281Z,99.90
2018-09-02T10:12:00.102Z,99.90
2018-09-02T10:14:29.278Z,99.90
2018-09-02T10:16:57.929Z,99.90
2018-09-02T10:19:26.711Z,99.90
2018-09-02T10:21:55.563Z,99.90
2018-09-02T10:24:24.365Z,99.90
2018-09-02T10:26:53.706Z,99.90
2018-09-02T10:29:22.591Z,99.90
2018-09-02T10:31:51.449Z,99.90
2018-09-02T10:34:20.135Z,99.90
2018-09-02T10:36:48.955Z,99.90
2018-09-02T10:39:17.718Z,99.90
2018-09-02T10:41:46.531Z,99.90
2018-09-02T10:44:15.238Z,99.90
2018-09-02T10:46:43.937Z,99.90
2018-09-02T10:49:12.722Z,99.90
2018-09-02T10:51:41.461Z,99.90
2018-09-02T10:54:10.221Z,99.90
2018-09-02T10:56:39.001Z,99.90
2018-09-02T10:59:07.792Z,99.90
2018-09-02T11:01:36.457Z,99.90
2018-09-02T11:04:05.269Z,99.90
2018-09-02T11:06:33.995Z,99.90
2018-09-02T11:09:02.764Z,99.90
2018-09-02T11:11:31.529Z,99.90
2018-09-02T11:14:00.385Z,99.90
2018-09-02T11:16:29.070Z,99.90
2018-09-02T11:18:57.746Z,99.90
2018-09-02T11:21:26.553Z,99.90
2018-09-02T11:23:55.256Z,99.90
2018-09-02T11:26:23.977Z,99.90
2018-09-02T11:28:52.746Z,99.90
2018-09-02T11:31:21.495Z,99.90
2018-09-02T11:33:50.180Z,99.90
2018-09-02T11:36:19.015Z,99.90
2018-09-02T11:38:47.783Z,99.90
2018-09-02T11:41:16.677Z,99.90
2018-09-02T11:43:45.409Z,99.90
2018-09-02T11:46:14.117Z,99.90
2018-09-02T11:48:42.831Z,99.90
2018-09-02T11:51:11.491Z,99.90
2018-09-02T11:53:40.228Z,99.90
2018-09-02T11:56:08.985Z,99.90
2018-09-02T11:58:37.699Z,99.90
2018-09-02T12:01:06.513Z,99.90
2018-09-02T12:03:35.261Z,99.90
2018-09-02T12:06:03.909Z,99.90
2018-09-02T12:08:32.649Z,99.90
2018-09-02T12:11:01.361Z,99.90
2018-09-02T12:13:30.136Z,99.90
2018-09-02T12:15:58.982Z,99.90
2018-09-02T12:18:27.837Z,99.90
2018-09-02T12:20:56.590Z,99.90
2018-09-02T12:23:25.384Z,99.90
2018-09-02T12:25:54.062Z,99.90
2018-09-02T12:28:22.806Z,99.90
2018-09-02T12:30:51.478Z,99.90
2018-09-02T12:33:20.257Z,99.90
2018-09-02T12:35:48.954Z,99.90
2018-09-02T12:38:17.721Z,99.90
2018-09-02T12:40:46.457Z,99.90
2018-09-02T12:43:15.280Z,99.90
2018-09-02T12:45:44.194Z,99.90
2018-09-02T12:48:12.961Z,99.90
2018-09-02T12:50:42.581Z,99.90
2018-09-02T12:53:11.362Z,99.90
2018-09-02T12:55:40.073Z,99.90
2018-09-02T12:58:08.921Z,99.90
2018-09-02T13:00:37.628Z,99.90
2018-09-02T13:03:06.611Z,99.90
2018-09-02T13:05:35.374Z,99.90
2018-09-02T13:08:04.172Z,99.90
2018-09-02T13:10:32.864Z,99.90
2018-09-02T13:13:01.649Z,99.90
2018-09-02T13:15:30.379Z,99.90
2018-09-02T13:17:59.256Z,99.90
2018-09-02T13:20:28.007Z,99.90
2018-09-02T13:22:56.931Z,99.90
2018-09-02T13:25:25.889Z,99.90
2018-09-02T13:27:54.568Z,99.90
2018-09-02T13:30:23.362Z,99.90
2018-09-02T13:32:52.088Z,99.90
2018-09-02T13:35:20.817Z,99.90
2018-09-02T13:37:49.528Z,99.90
2018-09-02T13:40:18.354Z,99.90
2018-09-02T13:42:47.095Z,99.90
2018-09-02T13:45:16.013Z,99.90
2018-09-02T13:47:44.736Z,99.90
2018-09-02T13:50:13.393Z,99.90
2018-09-02T13:52:42.193Z,99.90
2018-09-02T13:55:10.899Z,99.90
2018-09-02T13:57:39.686Z,99.90
2018-09-02T14:00:08.460Z,99.90
2018-09-02T14:02:37.197Z,99.90
2018-09-02T14:05:05.885Z,99.90
2018-09-02T14:07:34.597Z,99.90
2018-09-02T14:10:03.385Z,99.90
2018-09-02T14:12:32.126Z,99.90
2018-09-02T14:15:00.897Z,99.90
2018-09-02T14:17:29.694Z,99.90
2018-09-02T14:19:58.429Z,99.90
2018-09-02T14:22:27.230Z,99.90
2018-09-02T14:24:55.981Z,99.90
2018-09-02T14:27:24.626Z,99.90
2018-09-02T14:29:53.414Z,99.90
2018-09-02T14:32:22.356Z,99.90
2018-09-02T14:34:51.076Z,99.90
2018-09-02T14:37:19.814Z,99.90
2018-09-02T14:39:48.500Z,99.90
2018-09-02T14:42:17.258Z,99.90
2018-09-02T14:44:46.032Z,99.90
2018-09-02T14:47:14.785Z,99.90
2018-09-02T14:49:43.646Z,99.90
2018-09-02T14:52:12.361Z,99.90
2018-09-02T14:54:41.101Z,99.90
2018-09-02T14:57:09.905Z,99.90
2018-09-02T14:59:38.616Z,99.90
2018-09-02T15:02:07.497Z,99.90
2018-09-02T15:04:36.239Z,99.90
2018-09-02T15:07:04.924Z,99.90
2018-09-02T15:09:33.658Z,99.90
2018-09-02T15:12:02.425Z,99.90
2018-09-02T15:14:31.197Z,99.90
2018-09-02T15:16:59.972Z,99.90
2018-09-02T15:19:28.657Z,99.90
2018-09-02T15:21:57.397Z,99.90
2018-09-02T15:24:26.161Z,99.90
2018-09-02T15:26:54.879Z,99.90
2018-09-02T15:29:23.661Z,99.90
2018-09-02T15:31:52.517Z,99.90
2018-09-02T15:34:21.245Z,99.90
2018-09-02T15:36:49.928Z,99.90
2018-09-02T15:39:18.743Z,99.90
2018-09-02T15:41:47.517Z,99.90
2018-09-02T15:44:16.292Z,99.90
2018-09-02T15:46:44.968Z,99.90
2018-09-02T15:49:13.769Z,99.90
2018-09-02T15:51:42.562Z,99.90
2018-09-02T15:54:11.315Z,99.90
2018-09-02T15:56:40.037Z,99.90
2018-09-02T15:59:08.752Z,99.90
2018-09-02T16:01:37.466Z,99.90
2018-09-02T16:04:06.182Z,99.90
2018-09-02T16:06:34.983Z,99.90
2018-09-02T16:09:04.200Z,99.90
2018-09-02T16:11:32.950Z,99.90
2018-09-02T16:14:01.645Z,99.90
2018-09-02T16:16:30.844Z,99.90
2018-09-02T16:19:00.117Z,99.90
2018-09-02T16:21:28.813Z,99.90
2018-09-02T16:23:57.543Z,99.90
2018-09-02T16:26:26.400Z,99.90
2018-09-02T16:28:55.115Z,99.90
2018-09-02T16:31:23.928Z,99.90
2018-09-02T16:33:52.669Z,99.90
2018-09-02T16:36:21.377Z,99.90
2018-09-02T16:38:50.147Z,99.90
2018-09-02T16:41:18.931Z,99.90
2018-09-02T16:43:47.739Z,99.90
2018-09-02T16:46:16.443Z,99.90
2018-09-02T16:48:45.209Z,99.90
2018-09-02T16:51:13.902Z,99.90
2018-09-02T16:53:42.666Z,99.90
2018-09-02T16:56:11.404Z,99.90
2018-09-02T16:58:40.202Z,99.90
2018-09-02T17:01:08.909Z,99.90
2018-09-02T17:03:41.573Z,99.90
2018-09-02T17:06:10.325Z,99.90
2018-09-02T17:08:39.035Z,99.90
2018-09-02T17:11:07.802Z,99.90
2018-09-02T17:13:36.596Z,99.90
2018-09-02T17:16:05.413Z,99.90
2018-09-02T17:18:34.133Z,99.90
2018-09-02T17:21:02.750Z,99.90
2018-09-02T17:23:31.478Z,99.90
2018-09-02T17:26:00.179Z,99.90
2018-09-02T17:28:28.843Z,99.90
2018-09-02T17:30:57.602Z,99.90
2018-09-02T17:33:26.309Z,99.90
2018-09-02T17:35:55.050Z,99.90
2018-09-02T17:38:23.868Z,99.90
2018-09-02T17:40:52.595Z,99.90
2018-09-02T17:43:21.353Z,99.90
2018-09-02T17:45:50.141Z,99.90
2018-09-02T17:48:18.836Z,99.90
2018-09-02T17:50:47.577Z,99.90
2018-09-02T17:53:16.281Z,99.90
2018-09-02T17:55:45.005Z,99.90
2018-09-02T17:58:13.724Z,99.90
2018-09-02T18:00:45.026Z,99.90
2018-09-02T18:03:13.775Z,99.90
2018-09-02T18:05:42.505Z,99.90
2018-09-02T18:08:11.307Z,99.90
2018-09-02T18:10:40.076Z,99.90
2018-09-02T18:13:08.784Z,99.90
2018-09-02T18:15:37.533Z,99.90
2018-09-02T18:18:06.294Z,99.90
2018-09-02T18:20:35.037Z,99.90
2018-09-02T18:23:03.796Z,99.90
2018-09-02T18:25:32.490Z,99.90
2018-09-02T18:28:03.674Z,99.90
2018-09-02T18:30:32.345Z,99.90
2018-09-02T18:33:01.063Z,99.90
2018-09-02T18:35:29.784Z,99.90
2018-09-02T18:37:58.505Z,99.90
2018-09-02T18:40:27.329Z,99.90
2018-09-02T18:42:56.143Z,99.90
2018-09-02T18:45:25.031Z,99.90
2018-09-02T18:47:53.753Z,99.90
2018-09-02T18:50:22.494Z,99.90
2018-09-02T18:52:51.332Z,99.90
2018-09-02T18:55:20.163Z,99.90
2018-09-02T18:57:49.170Z,99.90
2018-09-02T19:00:17.905Z,99.90
2018-09-02T19:02:46.687Z,99.90
2018-09-02T19:05:15.431Z,99.90
2018-09-02T19:07:44.165Z,99.90
2018-09-02T19:10:13.070Z,99.90
2018-09-02T19:12:41.858Z,99.90
2018-09-02T19:15:10.665Z,99.90
2018-09-02T19:17:39.457Z,99.90
2018-09-02T19:20:08.280Z,99.90
2018-09-02T19:22:37.005Z,99.90
2018-09-02T19:25:05.805Z,99.90
2018-09-02T19:27:34.492Z,99.90
2018-09-02T19:30:03.248Z,99.90
2018-09-02T19:32:31.962Z,99.90
2018-09-02T19:35:00.760Z,99.90
2018-09-02T19:37:29.626Z,99.90
2018-09-02T19:39:58.325Z,99.90
2018-09-02T19:42:27.096Z,99.90
2018-09-02T19:44:55.819Z,99.90
2018-09-02T19:47:24.521Z,99.90
2018-09-02T19:49:53.334Z,99.90
2018-09-02T19:52:22.062Z,99.90
2018-09-02T19:54:50.784Z,99.90
2018-09-02T19:57:19.546Z,99.90
2018-09-02T19:59:48.234Z,99.90
2018-09-02T20:02:21.593Z,99.90
2018-09-02T20:04:54.535Z,99.90
2018-09-02T20:07:23.273Z,99.90
2018-09-02T20:09:52.021Z,99.90
2018-09-02T20:12:20.868Z,99.90
2018-09-02T20:14:49.553Z,99.90
2018-09-02T20:17:18.301Z,99.90
2018-09-02T20:19:47.079Z,99.90
2018-09-02T20:22:15.946Z,99.90
2018-09-02T20:24:44.730Z,99.90
2018-09-02T20:27:13.461Z,99.90
2018-09-02T20:29:42.136Z,99.90
2018-09-02T20:32:10.916Z,99.90
2018-09-02T20:34:39.716Z,99.90
2018-09-02T20:37:08.497Z,99.90
2018-09-02T20:39:37.222Z,99.90
2018-09-02T20:42:05.956Z,99.90
2018-09-02T20:44:34.727Z,99.90
2018-09-02T20:47:03.455Z,99.90
2018-09-02T20:49:32.244Z,99.90
2018-09-02T20:52:00.953Z,99.90
2018-09-02T20:54:29.658Z,99.90
2018-09-02T20:56:58.413Z,99.90
2018-09-02T20:59:27.144Z,99.90
2018-09-02T21:01:55.926Z,99.90
2018-09-02T21:04:24.734Z,99.90
2018-09-02T21:06:53.534Z,99.90
2018-09-02T21:09:22.396Z,99.90
2018-09-02T21:11:51.157Z,99.90
2018-09-02T21:14:19.994Z,99.90
2018-09-02T21:16:49.712Z,99.90
2018-09-02T21:19:18.449Z,99.90
2018-09-02T21:21:47.156Z,99.90
2018-09-02T21:24:15.896Z,99.90
2018-09-02T21:26:44.659Z,99.90
2018-09-02T21:29:13.365Z,99.90
2018-09-02T21:31:42.121Z,99.90
2018-09-02T21:34:10.866Z,99.90
2018-09-02T21:36:39.578Z,99.90
2018-09-02T21:39:09.167Z,99.90
2018-09-02T21:41:37.890Z,99.90
2018-09-02T21:44:06.723Z,99.90
2018-09-02T21:46:35.496Z,99.90
2018-09-02T21:49:04.213Z,99.90
2018-09-02T21:51:33.057Z,99.90
2018-09-02T21:54:01.729Z,99.90
2018-09-02T21:56:30.531Z,99.90
2018-09-02T21:58:59.248Z,99.90
2018-09-02T22:01:27.982Z,99.90
2018-09-02T22:03:56.770Z,99.90
2018-09-02T22:06:25.497Z,99.90
2018-09-02T22:08:54.181Z,99.90
2018-09-02T22:11:22.928Z,99.90
2018-09-02T22:13:51.662Z,99.90
2018-09-02T22:16:20.396Z,99.90
2018-09-02T22:18:49.168Z,99.90
2018-09-02T22:21:17.849Z,99.90
2018-09-02T22:23:47.486Z,99.90
2018-09-02T22:26:16.366Z,99.90
2018-09-02T22:28:45.085Z,99.90
2018-09-02T22:31:13.991Z,99.90
2018-09-02T22:33:42.743Z,99.90
2018-09-02T22:36:11.476Z,99.90
2018-09-02T22:38:40.164Z,99.90
2018-09-02T22:41:08.962Z,99.90
2018-09-02T22:43:37.690Z,99.90
2018-09-02T22:46:06.417Z,99.90
2018-09-02T22:48:35.218Z,99.90
2018-09-02T22:51:03.893Z,99.90
2018-09-02T22:53:32.598Z,99.90
2018-09-02T22:56:01.682Z,99.90
2018-09-02T22:58:30.364Z,99.90
2018-09-02T23:00:59.296Z,99.90
2018-09-02T23:03:28.023Z,99.90
2018-09-02T23:05:56.765Z,99.90
2018-09-02T23:08:25.478Z,99.90
2018-09-02T23:10:54.288Z,99.90
2018-09-02T23:13:22.970Z,99.90
2018-09-02T23:15:51.730Z,99.90
2018-09-02T23:18:20.389Z,99.90
2018-09-02T23:20:49.198Z,99.90
2018-09-02T23:23:18.022Z,99.90
2018-09-02T23:25:46.806Z,99.90
2018-09-02T23:28:15.553Z,99.90
2018-09-02T23:30:44.296Z,99.90
2018-09-02T23:33:13.000Z,99.90
2018-09-02T23:35:41.697Z,99.90
2018-09-02T23:38:10.436Z,99.90
2018-09-02T23:40:39.126Z,99.90
2018-09-02T23:43:07.852Z,99.90
2018-09-02T23:45:36.580Z,99.90
2018-09-02T23:48:05.601Z,99.90
2018-09-02T23:50:34.272Z,99.90
2018-09-02T23:53:03.028Z,99.90
2018-09-02T23:55:31.709Z,99.90
2018-09-02T23:58:00.448Z,99.90
